Aérodrome :
LOGIN :

S'inscrire | Disclaimer

   EN    FR    IT 

 










Légende :    VFR   VFR Marginal   IFR   IFR Intensif   IFR Très Intensif
Visi : 
Plafond : 
>= 8 km
>= 3000ft
5 à 8 km
1000 à 3000 ft
1500m à 5 km
500 à 1000 ft
800 à 1500m
200 à 500 ft
< 800m
< 200 ft
Symboles :   Orages  Brouillard  Fortes neiges  Fortes précipitations  Vent > 20 kt
SIGMETs :   Divers  Orages  Givrage  Turbulence  Onde Orograph.  Cendres Volcan.






- Altitude de l'aérodrome : 34 ft
- Code IATA : BLK


EGNH - Blackpool

DERNIER METAR :
  • 261450Z VRB03KT 9999 VCSH FEW013 SCT035CB SCT062CB 16/12 Q1008

METARs EXPIRÉS :
  • 261420Z VRB02KT 9999 VCSH FEW004 SCT035CB SCT041CB 15/12 Q1008
  • 261350Z 28006KT 240V310 9999 FEW012 SCT037CB BKN053CB 15/12 Q1008
  • 261320Z 27003KT 220V310 9999 -SHRA FEW012 SCT019CB SCT044CB SCT063CB 15/12 Q1008
  • 261250Z 26005KT 230V290 9999 FEW009 SCT015 SCT063CB 15/12 Q1008
  • 261220Z 18004KT 140V220 9999 FEW006 SCT011 SCT038CB 15/13 Q1008
  • 261150Z 18006KT 150V220 9000 -SHRA FEW006 SCT016 BKN038CB 14/12 Q1008 RESHRA
  • 261120Z 18007KT 160V220 9000 -SHRA FEW007 SCT013 BKN038CB 15/12 Q1009
  • 261050Z 17006KT 9000 -SHRA FEW007 SCT011 BKN020 14/12 Q1009 RESHRA
  • 261020Z 17009KT 9999 VCSH FEW008 SCT014 BKN024 14/11 Q1009
  • 260950Z 16009KT 9999 FEW008 SCT014 BKN020 14/11 Q1009

TAF TAF EGNH
Valide du 26 à 15h jusqu'au 26 à 20h UTC


261359Z 2615/2620 17008KT 9999 SCT020
TEMPO 2615/2620 2000 +SHRA +TSGR BKN012 BKN025CB
BECMG 2617/2620 24010KT
ATIS : +44 1253 343 434 (x8315)



MET'MAP, la Météo Aéronautique d'un coup d'oeil ! - Copyright ORBIFLY Décembre 2007 - Disclaimer

ORBIFLY MET'MAP TEAM :

Programmation & Développement : Alexandra Zaïnal
Sur une idée originale de : Baudouin d'Aumeries
Soutien technique & logistique : Manuel Goepfert
Assistance : Marc-Olivier Méhu




SOURCES & CREDITS :

   NOAA